メインページ
METAR-TAF:

METAR-TAF

空港 :

Blue River, ブリティッシュコロンビア州, カナダ

緯度: 52-08N, 経度: 119-18W, 海抜: 679m

現時点の気象観測

当レポートは24分前の18:00(UTC)に作成
変向風 2kt
気温 2°C
湿度 93%
気圧 1033 hPa
視程: 9.7km
高度400ftの雲はほとんどない
高度800ftの雲は散在している
高度1800ftの千切れ雲あり

METAR: CYCP 231800Z VRB02KT 6SM BR FEW004 SCT008 BKN018 02/01 A3049 RMK SF2SF2SC3 SLP358

時間: 11:24 (18:24 UTC)


TAF: 見つかりません

4,000以上の空港の気象観測と天気予報(METAR報とTAF報)

利用可能な観測所は地図上に黄色い丸と赤い丸で示す。

丸の上にカーソルを重ねると観測所名を参照できる。

次にクリックすると気象観測と天気予報を参照できる。

マップの切り替え:黒色「×」印の緑ボタンをクリックして拡大、「-」印の緑ボタンをクリックして縮小、緑色の三角印をクリックして隣りの地図に切り替え


METAR-TAF: